createdAt,value
2018-11-27T00:01:28.326Z,33.77
2018-11-27T00:06:30.838Z,29.27
2018-11-27T00:11:33.346Z,29.47
2018-11-27T00:16:35.882Z,29.90
2018-11-27T00:21:38.453Z,31.60
2018-11-27T00:26:40.998Z,29.30
2018-11-27T00:31:43.533Z,29.13
2018-11-27T00:36:46.058Z,28.73
2018-11-27T00:41:48.579Z,27.00
2018-11-27T00:46:51.122Z,29.50
2018-11-27T00:51:53.651Z,27.63
2018-11-27T00:56:56.173Z,29.33
2018-11-27T01:01:58.705Z,28.03
2018-11-27T01:07:01.242Z,28.63
2018-11-27T01:12:03.822Z,29.03
2018-11-27T01:17:06.361Z,28.93
2018-11-27T01:22:08.890Z,27.03
2018-11-27T01:27:11.436Z,28.57
2018-11-27T01:32:13.961Z,27.93
2018-11-27T01:37:16.456Z,25.43
2018-11-27T01:42:18.976Z,27.30
2018-11-27T01:47:21.513Z,29.37
2018-11-27T01:52:24.027Z,29.57
2018-11-27T01:57:26.710Z,32.00
2018-11-27T02:02:29.270Z,31.17
2018-11-27T02:07:31.802Z,30.30
2018-11-27T02:12:34.333Z,29.07
2018-11-27T02:17:36.869Z,32.97
2018-11-27T02:22:39.798Z,30.00
2018-11-27T02:27:42.222Z,27.20
2018-11-27T02:32:44.810Z,29.37
2018-11-27T02:37:48.478Z,25.23
2018-11-27T02:42:51.008Z,30.53
2018-11-27T02:47:54.035Z,27.33
2018-11-27T02:52:56.543Z,28.20
2018-11-27T02:57:59.067Z,24.93
2018-11-27T03:03:01.616Z,26.53
2018-11-27T03:08:04.332Z,31.90
2018-11-27T03:13:06.902Z,27.53
2018-11-27T03:18:09.458Z,27.20
2018-11-27T03:23:11.994Z,27.57
2018-11-27T03:28:14.594Z,25.40
2018-11-27T03:33:17.111Z,26.37
2018-11-27T03:38:19.640Z,27.20
2018-11-27T03:43:22.247Z,26.13
2018-11-27T03:48:24.792Z,25.07
2018-11-27T03:53:27.323Z,27.17
2018-11-27T03:58:29.874Z,22.77
2018-11-27T04:03:32.309Z,22.33
2018-11-27T04:08:34.883Z,26.10
2018-11-27T04:13:37.422Z,30.77
2018-11-27T04:18:39.976Z,24.43
2018-11-27T04:23:42.495Z,26.80
2018-11-27T04:28:45.040Z,26.17
2018-11-27T04:33:47.610Z,27.93
2018-11-27T04:38:50.116Z,29.03
2018-11-27T04:43:52.653Z,28.00
2018-11-27T04:48:55.182Z,37.00
2018-11-27T04:53:57.724Z,28.00
2018-11-27T04:59:00.310Z,26.77
2018-11-27T05:04:02.862Z,29.57
2018-11-27T05:09:09.273Z,40.03
2018-11-27T05:14:11.777Z,30.30
2018-11-27T05:19:14.321Z,28.03
2018-11-27T05:24:16.849Z,25.03
2018-11-27T05:29:19.363Z,23.20
2018-11-27T05:34:21.894Z,25.30
2018-11-27T05:39:24.467Z,23.13
2018-11-27T05:44:26.998Z,25.33
2018-11-27T05:49:29.528Z,24.33
2018-11-27T05:54:32.085Z,21.77
2018-11-27T05:59:34.663Z,22.47
2018-11-27T06:04:37.200Z,23.47
2018-11-27T06:09:39.758Z,24.20
2018-11-27T06:14:42.297Z,23.37
2018-11-27T06:19:44.817Z,25.87
2018-11-27T06:24:47.365Z,24.63
2018-11-27T06:29:49.895Z,25.73
2018-11-27T06:34:52.397Z,24.70
2018-11-27T06:39:54.997Z,23.07
2018-11-27T06:44:57.514Z,27.13
2018-11-27T06:50:00.034Z,24.93
2018-11-27T06:55:02.566Z,24.43
2018-11-27T07:00:12.800Z,23.93
2018-11-27T07:05:15.423Z,28.20
2018-11-27T07:10:27.030Z,29.80
2018-11-27T07:15:29.575Z,22.87
2018-11-27T07:20:32.102Z,22.30
2018-11-27T07:25:34.843Z,24.20
2018-11-27T07:30:38.626Z,22.20
2018-11-27T07:35:41.164Z,24.77
2018-11-27T07:40:43.686Z,21.00
2018-11-27T07:45:46.259Z,23.07
2018-11-27T07:50:48.790Z,25.57
2018-11-27T07:55:51.305Z,27.73
2018-11-27T08:00:53.841Z,23.77
2018-11-27T08:05:56.354Z,25.27
2018-11-27T08:10:58.866Z,23.67
2018-11-27T08:16:01.387Z,23.03
2018-11-27T08:21:04.690Z,23.50
2018-11-27T08:26:07.238Z,21.90
2018-11-27T08:31:09.763Z,22.13
2018-11-27T08:36:12.291Z,19.40
2018-11-27T08:41:14.819Z,22.97
2018-11-27T08:46:17.588Z,28.50
2018-11-27T08:51:20.134Z,30.53
2018-11-27T08:56:22.682Z,33.23
2018-11-27T09:01:25.230Z,27.23
2018-11-27T09:06:27.802Z,24.23
2018-11-27T09:11:30.339Z,25.07
2018-11-27T09:16:32.905Z,23.83
2018-11-27T09:21:35.436Z,18.40
2018-11-27T09:26:37.958Z,20.20
2018-11-27T09:31:40.491Z,22.23
2018-11-27T09:36:43.032Z,28.93
2018-11-27T09:41:45.489Z,24.30
2018-11-27T09:46:48.016Z,24.03
2018-11-27T09:51:51.214Z,24.97
2018-11-27T09:56:53.904Z,26.50
2018-11-27T10:01:56.470Z,23.33
2018-11-27T10:06:58.999Z,22.33
2018-11-27T10:12:01.513Z,22.93
2018-11-27T10:17:04.226Z,24.67
2018-11-27T10:22:06.866Z,25.57
2018-11-27T10:27:09.471Z,26.40
2018-11-27T10:32:12.006Z,28.03
2018-11-27T10:37:14.545Z,23.90
2018-11-27T10:42:17.082Z,23.87
2018-11-27T10:47:19.664Z,23.77
2018-11-27T10:52:22.202Z,22.80
2018-11-27T10:57:24.761Z,21.70
2018-11-27T11:02:33.624Z,26.10
2018-11-27T11:07:36.159Z,22.83
2018-11-27T11:12:38.718Z,24.67
2018-11-27T11:17:41.305Z,20.37
2018-11-27T11:22:43.831Z,20.23
2018-11-27T11:27:48.111Z,25.17
2018-11-27T11:32:50.678Z,25.23
2018-11-27T11:37:53.214Z,23.70
2018-11-27T11:42:56.541Z,22.13
2018-11-27T11:47:59.086Z,21.50
2018-11-27T11:53:18.733Z,23.80
2018-11-27T11:58:21.743Z,21.80
2018-11-27T12:03:24.286Z,22.53
2018-11-27T12:08:27.597Z,22.87
2018-11-27T12:13:30.202Z,23.23
2018-11-27T12:18:33.630Z,23.77
2018-11-27T12:23:36.203Z,23.40
2018-11-27T12:28:38.774Z,21.87
2018-11-27T12:33:41.311Z,24.77
2018-11-27T12:38:43.890Z,23.23
2018-11-27T12:43:46.411Z,25.53
2018-11-27T12:48:48.940Z,23.93
2018-11-27T12:53:51.753Z,25.47
2018-11-27T12:58:54.294Z,26.67
2018-11-27T13:03:57.022Z,28.00
2018-11-27T13:08:59.717Z,25.70
2018-11-27T13:14:02.400Z,23.93
2018-11-27T13:19:04.989Z,28.37
2018-11-27T13:24:07.561Z,27.47
2018-11-27T13:29:10.151Z,27.70
2018-11-27T13:34:14.608Z,30.13
2018-11-27T13:39:37.947Z,32.47
2018-11-27T13:44:40.551Z,26.87
2018-11-27T13:49:43.110Z,32.43
2018-11-27T13:54:45.658Z,29.03
2018-11-27T13:59:48.422Z,28.43
2018-11-27T14:04:50.984Z,34.30
2018-11-27T14:09:53.549Z,33.97
2018-11-27T14:14:56.093Z,32.47
2018-11-27T14:19:58.642Z,31.90
2018-11-27T14:25:01.218Z,36.57
2018-11-27T14:30:10.503Z,38.57
2018-11-27T14:35:13.762Z,40.70
2018-11-27T14:40:18.466Z,40.60
2018-11-27T14:45:22.464Z,33.93
2018-11-27T14:50:25.073Z,37.80
2018-11-27T14:55:28.835Z,37.87
2018-11-27T15:00:31.412Z,35.10
2018-11-27T15:05:35.213Z,39.77
2018-11-27T15:10:37.828Z,33.37
2018-11-27T15:15:40.399Z,34.57
2018-11-27T15:20:43.881Z,33.93
2018-11-27T15:25:46.422Z,33.70
2018-11-27T15:30:48.979Z,38.87
2018-11-27T15:35:51.525Z,38.57
2018-11-27T15:40:54.107Z,45.93
2018-11-27T15:45:56.647Z,41.00
2018-11-27T15:50:59.215Z,37.73
2018-11-27T15:56:01.795Z,37.30
2018-11-27T16:01:04.468Z,35.23
2018-11-27T16:06:07.015Z,34.77
2018-11-27T16:11:09.574Z,40.03
2018-11-27T16:16:12.182Z,39.33
2018-11-27T16:21:14.718Z,36.20
2018-11-27T16:26:17.294Z,37.17
2018-11-27T16:31:19.887Z,37.03
2018-11-27T16:36:22.489Z,42.03
2018-11-27T16:41:25.027Z,33.93
2018-11-27T16:46:27.563Z,33.33
2018-11-27T16:51:30.121Z,37.00
2018-11-27T16:56:32.688Z,35.70
2018-11-27T17:01:35.255Z,34.93
2018-11-27T17:06:40.235Z,45.00
2018-11-27T17:11:42.822Z,42.90
2018-11-27T17:16:45.395Z,49.70
2018-11-27T17:21:48.044Z,39.83
2018-11-27T17:26:50.591Z,49.00
2018-11-27T17:31:53.267Z,41.93
2018-11-27T17:36:56.207Z,44.90
2018-11-27T17:41:58.802Z,59.97
2018-11-27T17:47:01.387Z,49.33
2018-11-27T17:52:04.011Z,47.67
2018-11-27T17:57:06.616Z,47.63
2018-11-27T18:02:09.233Z,40.93
2018-11-27T18:07:11.860Z,39.30
2018-11-27T18:12:14.376Z,47.07
2018-11-27T18:17:18.341Z,41.13
2018-11-27T18:22:21.044Z,37.67
2018-11-27T18:27:23.610Z,38.27
2018-11-27T18:32:26.195Z,37.83
2018-11-27T18:37:29.234Z,43.30
2018-11-27T18:42:31.871Z,35.47
2018-11-27T18:47:34.421Z,44.37
2018-11-27T18:52:37.039Z,49.00
2018-11-27T18:57:40.272Z,47.93
2018-11-27T19:02:42.820Z,44.47
2018-11-27T19:07:45.390Z,44.63
2018-11-27T19:12:50.815Z,45.47
2018-11-27T19:17:57.980Z,51.67
2018-11-27T19:23:03.382Z,63.57
2018-11-27T19:28:09.785Z,54.33
2018-11-27T19:33:15.271Z,52.97
2018-11-27T19:38:21.487Z,56.30
2018-11-27T19:43:27.049Z,57.93
2018-11-27T19:48:32.466Z,53.60
2018-11-27T19:53:37.894Z,52.07
2018-11-27T19:58:43.868Z,45.03
2018-11-27T20:03:50.726Z,50.03
2018-11-27T20:08:53.326Z,54.53
2018-11-27T20:13:55.916Z,49.90
2018-11-27T20:18:58.483Z,60.73
2018-11-27T20:24:00.970Z,52.83
2018-11-27T20:29:03.663Z,46.63
2018-11-27T20:34:06.330Z,61.60
2018-11-27T20:39:09.438Z,45.13
2018-11-27T20:44:12.011Z,48.07
2018-11-27T20:49:14.619Z,40.43
2018-11-27T20:54:17.329Z,41.37
2018-11-27T20:59:19.920Z,63.73
2018-11-27T21:04:22.979Z,52.43
2018-11-27T21:09:26.332Z,49.13
2018-11-27T21:14:30.683Z,48.50
2018-11-27T21:19:34.932Z,50.37
2018-11-27T21:24:37.944Z,51.23
2018-11-27T21:29:40.527Z,55.70
2018-11-27T21:34:45.597Z,51.30
2018-11-27T21:39:48.302Z,46.00
2018-11-27T21:44:51.244Z,46.97
2018-11-27T21:49:53.819Z,46.77
2018-11-27T21:54:56.412Z,57.40
2018-11-27T21:59:58.995Z,49.80
2018-11-27T22:05:01.556Z,47.40
2018-11-27T22:10:09.628Z,53.57
2018-11-27T22:15:44.336Z,56.43
2018-11-27T22:20:48.353Z,46.87
2018-11-27T22:25:53.199Z,45.53
2018-11-27T22:30:55.847Z,48.47
2018-11-27T22:36:00.038Z,48.47
2018-11-27T22:41:03.223Z,45.07
2018-11-27T22:46:06.087Z,57.23
2018-11-27T22:51:09.422Z,60.17
2018-11-27T22:56:14.460Z,55.37
2018-11-27T23:01:17.412Z,63.93
2018-11-27T23:06:20.280Z,62.90
2018-11-27T23:11:22.839Z,60.53
2018-11-27T23:16:25.401Z,45.80
2018-11-27T23:21:27.940Z,39.00
2018-11-27T23:26:30.469Z,41.13
2018-11-27T23:31:32.991Z,38.80
2018-11-27T23:36:35.530Z,34.80
2018-11-27T23:41:38.266Z,36.40
2018-11-27T23:46:40.807Z,32.07
2018-11-27T23:51:43.370Z,33.07
2018-11-27T23:56:48.767Z,31.83
